sensor_id;sensor_type;location;lat;lon;timestamp;temperature;humidity
40622;DHT22;26324;52.040;11.528;2023-04-25T00:01:04;6.20;83.60
40622;DHT22;26324;52.040;11.528;2023-04-25T00:03:45;6.40;82.90
40622;DHT22;26324;52.040;11.528;2023-04-25T00:06:13;6.60;82.10
40622;DHT22;26324;52.040;11.528;2023-04-25T00:08:42;6.80;81.50
40622;DHT22;26324;52.040;11.528;2023-04-25T00:11:10;6.90;80.90
40622;DHT22;26324;52.040;11.528;2023-04-25T00:13:37;6.90;80.80
40622;DHT22;26324;52.040;11.528;2023-04-25T00:16:05;7.00;80.50
40622;DHT22;26324;52.040;11.528;2023-04-25T00:18:32;7.00;80.20
40622;DHT22;26324;52.040;11.528;2023-04-25T00:21:00;7.00;80.30
40622;DHT22;26324;52.040;11.528;2023-04-25T00:23:28;7.00;80.30
40622;DHT22;26324;52.040;11.528;2023-04-25T00:25:55;7.00;80.10
40622;DHT22;26324;52.040;11.528;2023-04-25T00:28:23;7.00;80.30
40622;DHT22;26324;52.040;11.528;2023-04-25T00:30:50;7.00;80.30
40622;DHT22;26324;52.040;11.528;2023-04-25T00:33:18;7.00;80.40
40622;DHT22;26324;52.040;11.528;2023-04-25T00:35:45;7.10;80.20
40622;DHT22;26324;52.040;11.528;2023-04-25T00:38:15;7.10;80.10
40622;DHT22;26324;52.040;11.528;2023-04-25T00:40:43;7.10;79.80
40622;DHT22;26324;52.040;11.528;2023-04-25T00:43:11;7.20;79.40
40622;DHT22;26324;52.040;11.528;2023-04-25T00:45:39;7.30;79.10
40622;DHT22;26324;52.040;11.528;2023-04-25T00:48:07;7.30;79.00
40622;DHT22;26324;52.040;11.528;2023-04-25T00:50:35;7.40;78.80
40622;DHT22;26324;52.040;11.528;2023-04-25T00:53:03;7.30;79.10
40622;DHT22;26324;52.040;11.528;2023-04-25T00:55:31;7.20;79.00
40622;DHT22;26324;52.040;11.528;2023-04-25T00:58:06;7.30;79.20
40622;DHT22;26324;52.040;11.528;2023-04-25T01:00:33;7.30;78.90
40622;DHT22;26324;52.040;11.528;2023-04-25T01:03:01;7.40;78.90
40622;DHT22;26324;52.040;11.528;2023-04-25T02:07:44;7.20;79.20
40622;DHT22;26324;52.040;11.528;2023-04-25T02:10:11;7.20;79.20
40622;DHT22;26324;52.040;11.528;2023-04-25T02:12:53;7.20;79.50
40622;DHT22;26324;52.040;11.528;2023-04-25T02:15:29;7.20;79.10
40622;DHT22;26324;52.040;11.528;2023-04-25T02:18:02;7.10;79.50
40622;DHT22;26324;52.040;11.528;2023-04-25T02:20:30;7.10;79.60
40622;DHT22;26324;52.040;11.528;2023-04-25T02:22:58;7.10;79.80
40622;DHT22;26324;52.040;11.528;2023-04-25T02:25:27;7.00;80.20
40622;DHT22;26324;52.040;11.528;2023-04-25T02:27:54;6.90;80.40
40622;DHT22;26324;52.040;11.528;2023-04-25T02:30:22;6.80;80.90
40622;DHT22;26324;52.040;11.528;2023-04-25T02:32:49;6.70;81.40
40622;DHT22;26324;52.040;11.528;2023-04-25T02:35:17;6.70;81.40
40622;DHT22;26324;52.040;11.528;2023-04-25T02:37:45;6.60;81.90
40622;DHT22;26324;52.040;11.528;2023-04-25T02:40:13;6.50;82.00
40622;DHT22;26324;52.040;11.528;2023-04-25T02:42:40;6.50;82.40
40622;DHT22;26324;52.040;11.528;2023-04-25T02:45:08;6.40;82.40
40622;DHT22;26324;52.040;11.528;2023-04-25T02:47:35;6.40;82.70
40622;DHT22;26324;52.040;11.528;2023-04-25T02:50:03;6.20;83.00
40622;DHT22;26324;52.040;11.528;2023-04-25T02:52:30;6.00;83.30
40622;DHT22;26324;52.040;11.528;2023-04-25T02:55:14;6.00;83.30
40622;DHT22;26324;52.040;11.528;2023-04-25T02:57:43;5.90;83.20
40622;DHT22;26324;52.040;11.528;2023-04-25T03:00:14;5.90;83.10
40622;DHT22;26324;52.040;11.528;2023-04-25T03:02:41;5.80;83.20
40622;DHT22;26324;52.040;11.528;2023-04-25T03:05:08;5.80;83.40
40622;DHT22;26324;52.040;11.528;2023-04-25T03:07:36;5.70;83.60
40622;DHT22;26324;52.040;11.528;2023-04-25T03:10:04;5.60;83.90
40622;DHT22;26324;52.040;11.528;2023-04-25T03:12:33;5.50;84.00
40622;DHT22;26324;52.040;11.528;2023-04-25T03:15:00;5.50;83.90
40622;DHT22;26324;52.040;11.528;2023-04-25T03:17:27;5.40;84.10
40622;DHT22;26324;52.040;11.528;2023-04-25T03:19:55;5.50;83.80
40622;DHT22;26324;52.040;11.528;2023-04-25T03:22:23;5.50;83.60
40622;DHT22;26324;52.040;11.528;2023-04-25T03:24:51;5.50;83.80
40622;DHT22;26324;52.040;11.528;2023-04-25T03:27:19;5.50;83.90
40622;DHT22;26324;52.040;11.528;2023-04-25T03:29:47;5.50;83.70
40622;DHT22;26324;52.040;11.528;2023-04-25T03:32:21;5.50;83.80
40622;DHT22;26324;52.040;11.528;2023-04-25T03:34:49;5.50;83.60
40622;DHT22;26324;52.040;11.528;2023-04-25T03:37:16;5.60;83.60
40622;DHT22;26324;52.040;11.528;2023-04-25T03:39:44;5.60;83.80
40622;DHT22;26324;52.040;11.528;2023-04-25T03:42:11;5.60;83.30
40622;DHT22;26324;52.040;11.528;2023-04-25T03:44:39;5.70;83.30
40622;DHT22;26324;52.040;11.528;2023-04-25T03:47:07;5.70;83.20
40622;DHT22;26324;52.040;11.528;2023-04-25T03:49:34;5.70;83.40
40622;DHT22;26324;52.040;11.528;2023-04-25T03:52:05;5.70;83.60
40622;DHT22;26324;52.040;11.528;2023-04-25T03:54:36;5.80;83.70
40622;DHT22;26324;52.040;11.528;2023-04-25T03:57:10;5.90;83.30
40622;DHT22;26324;52.040;11.528;2023-04-25T03:59:39;6.00;83.10
40622;DHT22;26324;52.040;11.528;2023-04-25T04:02:09;6.10;82.90
40622;DHT22;26324;52.040;11.528;2023-04-25T04:04:37;6.20;82.60
40622;DHT22;26324;52.040;11.528;2023-04-25T04:07:05;6.30;82.20
40622;DHT22;26324;52.040;11.528;2023-04-25T04:09:36;6.50;81.60
40622;DHT22;26324;52.040;11.528;2023-04-25T04:12:08;6.50;81.50
40622;DHT22;26324;52.040;11.528;2023-04-25T04:14:38;6.60;81.20
40622;DHT22;26324;52.040;11.528;2023-04-25T04:17:05;6.60;81.00
40622;DHT22;26324;52.040;11.528;2023-04-25T04:19:33;6.60;81.20
40622;DHT22;26324;52.040;11.528;2023-04-25T04:22:17;6.70;81.10
40622;DHT22;26324;52.040;11.528;2023-04-25T04:24:46;6.70;81.20
40622;DHT22;26324;52.040;11.528;2023-04-25T04:27:19;6.70;81.70
40622;DHT22;26324;52.040;11.528;2023-04-25T04:30:06;6.80;81.50
40622;DHT22;26324;52.040;11.528;2023-04-25T04:32:38;6.80;81.90
40622;DHT22;26324;52.040;11.528;2023-04-25T04:35:06;6.80;82.10
40622;DHT22;26324;52.040;11.528;2023-04-25T04:37:33;6.80;81.80
40622;DHT22;26324;52.040;11.528;2023-04-25T04:40:02;6.80;81.90
40622;DHT22;26324;52.040;11.528;2023-04-25T04:42:50;6.80;82.10
40622;DHT22;26324;52.040;11.528;2023-04-25T04:45:36;6.90;81.90
40622;DHT22;26324;52.040;11.528;2023-04-25T04:48:31;7.00;81.80
40622;DHT22;26324;52.040;11.528;2023-04-25T04:51:24;7.00;82.10
40622;DHT22;26324;52.040;11.528;2023-04-25T04:54:10;7.10;82.20
40622;DHT22;26324;52.040;11.528;2023-04-25T04:56:48;7.10;82.20
40622;DHT22;26324;52.040;11.528;2023-04-25T04:59:17;7.10;82.20
40622;DHT22;26324;52.040;11.528;2023-04-25T05:02:00;7.10;82.40
40622;DHT22;26324;52.040;11.528;2023-04-25T05:04:46;7.10;82.80
40622;DHT22;26324;52.040;11.528;2023-04-25T05:07:32;7.20;82.60
40622;DHT22;26324;52.040;11.528;2023-04-25T05:10:05;7.30;82.80
40622;DHT22;26324;52.040;11.528;2023-04-25T05:12:56;7.30;82.80
40622;DHT22;26324;52.040;11.528;2023-04-25T05:15:52;7.20;83.20
40622;DHT22;26324;52.040;11.528;2023-04-25T05:18:47;7.10;83.70
40622;DHT22;26324;52.040;11.528;2023-04-25T05:21:30;7.10;83.70
40622;DHT22;26324;52.040;11.528;2023-04-25T05:24:18;7.20;83.80
40622;DHT22;26324;52.040;11.528;2023-04-25T05:27:04;7.10;84.20
40622;DHT22;26324;52.040;11.528;2023-04-25T05:29:45;7.20;84.40
40622;DHT22;26324;52.040;11.528;2023-04-25T05:32:26;7.10;84.40
40622;DHT22;26324;52.040;11.528;2023-04-25T05:34:55;7.10;84.20
40622;DHT22;26324;52.040;11.528;2023-04-25T05:37:26;7.10;84.80
40622;DHT22;26324;52.040;11.528;2023-04-25T05:39:59;7.10;84.50
40622;DHT22;26324;52.040;11.528;2023-04-25T05:42:45;7.10;84.50
40622;DHT22;26324;52.040;11.528;2023-04-25T05:45:28;7.10;84.50
40622;DHT22;26324;52.040;11.528;2023-04-25T05:48:04;7.20;84.60
40622;DHT22;26324;52.040;11.528;2023-04-25T05:50:56;7.30;84.80
40622;DHT22;26324;52.040;11.528;2023-04-25T05:53:44;7.40;83.90
40622;DHT22;26324;52.040;11.528;2023-04-25T05:56:13;7.50;82.90
40622;DHT22;26324;52.040;11.528;2023-04-25T05:58:40;7.70;81.60
40622;DHT22;26324;52.040;11.528;2023-04-25T06:01:10;7.70;81.00
40622;DHT22;26324;52.040;11.528;2023-04-25T06:03:37;7.80;79.10
40622;DHT22;26324;52.040;11.528;2023-04-25T06:06:06;7.70;78.40
40622;DHT22;26324;52.040;11.528;2023-04-25T06:08:33;7.70;78.40
40622;DHT22;26324;52.040;11.528;2023-04-25T06:11:00;7.80;78.70
40622;DHT22;26324;52.040;11.528;2023-04-25T06:13:30;7.70;79.10
40622;DHT22;26324;52.040;11.528;2023-04-25T06:16:13;7.70;77.90
40622;DHT22;26324;52.040;11.528;2023-04-25T06:19:28;7.70;78.10
40622;DHT22;26324;52.040;11.528;2023-04-25T06:22:43;7.80;78.20
40622;DHT22;26324;52.040;11.528;2023-04-25T06:26:18;7.90;78.10
40622;DHT22;26324;52.040;11.528;2023-04-25T06:29:27;7.90;76.40
40622;DHT22;26324;52.040;11.528;2023-04-25T06:32:34;8.00;77.60
40622;DHT22;26324;52.040;11.528;2023-04-25T06:35:35;7.90;77.40
40622;DHT22;26324;52.040;11.528;2023-04-25T06:38:13;7.90;76.60
40622;DHT22;26324;52.040;11.528;2023-04-25T06:40:57;8.00;76.10
40622;DHT22;26324;52.040;11.528;2023-04-25T06:43:36;8.20;76.00
40622;DHT22;26324;52.040;11.528;2023-04-25T06:46:25;8.20;74.90
40622;DHT22;26324;52.040;11.528;2023-04-25T06:49:02;8.20;74.60
40622;DHT22;26324;52.040;11.528;2023-04-25T06:51:38;8.30;74.70
40622;DHT22;26324;52.040;11.528;2023-04-25T06:54:10;8.30;75.10
40622;DHT22;26324;52.040;11.528;2023-04-25T06:56:47;8.30;75.10
40622;DHT22;26324;52.040;11.528;2023-04-25T06:59:25;8.30;74.70
40622;DHT22;26324;52.040;11.528;2023-04-25T07:02:37;8.00;75.70
40622;DHT22;26324;52.040;11.528;2023-04-25T07:05:13;7.80;75.50
40622;DHT22;26324;52.040;11.528;2023-04-25T07:07:48;7.80;74.40
40622;DHT22;26324;52.040;11.528;2023-04-25T07:10:43;7.90;74.30
40622;DHT22;26324;52.040;11.528;2023-04-25T07:13:56;8.00;73.90
40622;DHT22;26324;52.040;11.528;2023-04-25T07:16:29;8.40;72.00
40622;DHT22;26324;52.040;11.528;2023-04-25T07:19:01;8.60;72.30
40622;DHT22;26324;52.040;11.528;2023-04-25T07:21:30;8.90;72.10
40622;DHT22;26324;52.040;11.528;2023-04-25T07:24:02;9.10;72.10
40622;DHT22;26324;52.040;11.528;2023-04-25T07:26:37;9.40;69.60
40622;DHT22;26324;52.040;11.528;2023-04-25T07:29:39;9.50;65.10
40622;DHT22;26324;52.040;11.528;2023-04-25T07:32:07;9.30;65.30
40622;DHT22;26324;52.040;11.528;2023-04-25T07:34:37;9.40;64.20
40622;DHT22;26324;52.040;11.528;2023-04-25T07:37:05;9.50;66.00
40622;DHT22;26324;52.040;11.528;2023-04-25T07:39:41;9.50;65.20
40622;DHT22;26324;52.040;11.528;2023-04-25T07:42:09;9.10;65.00
40622;DHT22;26324;52.040;11.528;2023-04-25T07:44:40;8.80;66.30
40622;DHT22;26324;52.040;11.528;2023-04-25T07:47:10;9.00;68.00
40622;DHT22;26324;52.040;11.528;2023-04-25T07:49:37;9.10;65.70
40622;DHT22;26324;52.040;11.528;2023-04-25T07:52:05;9.30;64.80
40622;DHT22;26324;52.040;11.528;2023-04-25T07:54:37;9.50;65.70
40622;DHT22;26324;52.040;11.528;2023-04-25T07:57:13;9.50;65.70
40622;DHT22;26324;52.040;11.528;2023-04-25T07:59:52;9.60;65.70
40622;DHT22;26324;52.040;11.528;2023-04-25T08:02:21;9.80;65.20
40622;DHT22;26324;52.040;11.528;2023-04-25T08:04:58;9.90;64.70
40622;DHT22;26324;52.040;11.528;2023-04-25T08:07:33;10.10;63.40
40622;DHT22;26324;52.040;11.528;2023-04-25T08:10:05;10.30;60.80
40622;DHT22;26324;52.040;11.528;2023-04-25T08:12:33;10.10;59.00
40622;DHT22;26324;52.040;11.528;2023-04-25T08:15:01;10.10;59.00
40622;DHT22;26324;52.040;11.528;2023-04-25T08:17:33;10.10;60.40
40622;DHT22;26324;52.040;11.528;2023-04-25T08:20:01;10.20;58.80
40622;DHT22;26324;52.040;11.528;2023-04-25T08:22:31;10.20;57.90
40622;DHT22;26324;52.040;11.528;2023-04-25T08:25:21;10.20;56.40
40622;DHT22;26324;52.040;11.528;2023-04-25T08:27:48;10.00;56.50
40622;DHT22;26324;52.040;11.528;2023-04-25T08:30:18;9.90;58.60
40622;DHT22;26324;52.040;11.528;2023-04-25T08:32:46;9.90;60.60
40622;DHT22;26324;52.040;11.528;2023-04-25T08:35:30;9.80;60.00
40622;DHT22;26324;52.040;11.528;2023-04-25T08:37:57;9.70;57.80
40622;DHT22;26324;52.040;11.528;2023-04-25T08:40:27;9.60;59.40
40622;DHT22;26324;52.040;11.528;2023-04-25T08:43:03;9.80;58.90
40622;DHT22;26324;52.040;11.528;2023-04-25T08:45:32;9.90;57.90
40622;DHT22;26324;52.040;11.528;2023-04-25T08:48:14;10.00;58.60
40622;DHT22;26324;52.040;11.528;2023-04-25T08:50:51;10.10;59.10
40622;DHT22;26324;52.040;11.528;2023-04-25T08:53:25;10.30;59.10
40622;DHT22;26324;52.040;11.528;2023-04-25T08:55:55;10.50;56.20
40622;DHT22;26324;52.040;11.528;2023-04-25T08:58:23;10.50;55.90
40622;DHT22;26324;52.040;11.528;2023-04-25T09:00:51;10.50;55.70
40622;DHT22;26324;52.040;11.528;2023-04-25T09:03:22;10.30;56.60
40622;DHT22;26324;52.040;11.528;2023-04-25T09:05:51;10.40;59.50
40622;DHT22;26324;52.040;11.528;2023-04-25T09:08:20;10.10;55.60
40622;DHT22;26324;52.040;11.528;2023-04-25T09:10:48;10.10;54.60
40622;DHT22;26324;52.040;11.528;2023-04-25T09:13:32;10.20;54.70
40622;DHT22;26324;52.040;11.528;2023-04-25T09:17:05;10.60;55.80
40622;DHT22;26324;52.040;11.528;2023-04-25T09:20:18;10.60;50.40
40622;DHT22;26324;52.040;11.528;2023-04-25T09:23:05;10.80;51.10
40622;DHT22;26324;52.040;11.528;2023-04-25T09:25:38;10.80;50.80
40622;DHT22;26324;52.040;11.528;2023-04-25T09:28:16;11.30;50.60
40622;DHT22;26324;52.040;11.528;2023-04-25T09:31:02;11.40;51.70
40622;DHT22;26324;52.040;11.528;2023-04-25T09:33:40;11.20;50.80
40622;DHT22;26324;52.040;11.528;2023-04-25T09:36:09;11.00;51.20
40622;DHT22;26324;52.040;11.528;2023-04-25T09:38:52;10.70;52.10
40622;DHT22;26324;52.040;11.528;2023-04-25T09:41:28;10.50;54.50
40622;DHT22;26324;52.040;11.528;2023-04-25T09:43:59;10.50;56.60
40622;DHT22;26324;52.040;11.528;2023-04-25T09:46:35;10.50;52.90
40622;DHT22;26324;52.040;11.528;2023-04-25T09:49:11;10.50;53.20
40622;DHT22;26324;52.040;11.528;2023-04-25T09:51:55;10.50;51.90
40622;DHT22;26324;52.040;11.528;2023-04-25T09:54:27;10.70;52.80
40622;DHT22;26324;52.040;11.528;2023-04-25T09:57:24;10.60;52.10
40622;DHT22;26324;52.040;11.528;2023-04-25T09:59:55;10.60;53.80
40622;DHT22;26324;52.040;11.528;2023-04-25T10:02:26;10.70;52.20
40622;DHT22;26324;52.040;11.528;2023-04-25T10:05:05;10.60;52.20
40622;DHT22;26324;52.040;11.528;2023-04-25T10:07:38;10.20;53.70
40622;DHT22;26324;52.040;11.528;2023-04-25T10:10:13;10.20;54.60
40622;DHT22;26324;52.040;11.528;2023-04-25T10:12:47;10.40;55.20
40622;DHT22;26324;52.040;11.528;2023-04-25T10:15:24;10.20;53.10
40622;DHT22;26324;52.040;11.528;2023-04-25T10:18:06;10.20;54.70
40622;DHT22;26324;52.040;11.528;2023-04-25T10:20:33;9.90;55.50
40622;DHT22;26324;52.040;11.528;2023-04-25T10:23:12;9.60;55.50
40622;DHT22;26324;52.040;11.528;2023-04-25T10:25:41;9.40;57.30
40622;DHT22;26324;52.040;11.528;2023-04-25T10:28:09;9.50;58.30
40622;DHT22;26324;52.040;11.528;2023-04-25T10:30:36;9.60;56.50
40622;DHT22;26324;52.040;11.528;2023-04-25T10:33:17;9.50;56.70
40622;DHT22;26324;52.040;11.528;2023-04-25T10:35:45;9.60;55.70
40622;DHT22;26324;52.040;11.528;2023-04-25T10:38:16;9.60;54.30
40622;DHT22;26324;52.040;11.528;2023-04-25T10:41:03;9.80;56.00
40622;DHT22;26324;52.040;11.528;2023-04-25T10:43:41;10.00;54.10
40622;DHT22;26324;52.040;11.528;2023-04-25T10:46:25;9.90;53.70
40622;DHT22;26324;52.040;11.528;2023-04-25T10:48:55;10.20;54.60
40622;DHT22;26324;52.040;11.528;2023-04-25T10:51:27;10.20;53.70
40622;DHT22;26324;52.040;11.528;2023-04-25T10:54:07;10.50;53.50
40622;DHT22;26324;52.040;11.528;2023-04-25T10:56:39;10.50;51.00
40622;DHT22;26324;52.040;11.528;2023-04-25T10:59:16;10.40;51.40
40622;DHT22;26324;52.040;11.528;2023-04-25T11:04:32;10.60;51.80
40622;DHT22;26324;52.040;11.528;2023-04-25T11:07:10;10.60;46.30
40622;DHT22;26324;52.040;11.528;2023-04-25T11:09:41;10.40;51.40
40622;DHT22;26324;52.040;11.528;2023-04-25T11:12:09;10.30;49.60
40622;DHT22;26324;52.040;11.528;2023-04-25T11:14:41;10.10;50.50
40622;DHT22;26324;52.040;11.528;2023-04-25T11:17:09;9.80;49.40
40622;DHT22;26324;52.040;11.528;2023-04-25T11:19:37;9.90;53.00
40622;DHT22;26324;52.040;11.528;2023-04-25T11:22:05;10.00;50.70
40622;DHT22;26324;52.040;11.528;2023-04-25T11:24:34;10.20;49.50
40622;DHT22;26324;52.040;11.528;2023-04-25T11:27:03;10.30;48.70
40622;DHT22;26324;52.040;11.528;2023-04-25T11:29:33;10.10;48.30
40622;DHT22;26324;52.040;11.528;2023-04-25T11:32:01;10.00;49.10
40622;DHT22;26324;52.040;11.528;2023-04-25T11:34:31;10.00;52.50
40622;DHT22;26324;52.040;11.528;2023-04-25T11:37:00;10.20;52.50
40622;DHT22;26324;52.040;11.528;2023-04-25T11:39:28;10.50;50.60
40622;DHT22;26324;52.040;11.528;2023-04-25T11:41:56;10.70;49.40
40622;DHT22;26324;52.040;11.528;2023-04-25T11:44:23;10.70;50.00
40622;DHT22;26324;52.040;11.528;2023-04-25T11:46:50;10.60;49.50
40622;DHT22;26324;52.040;11.528;2023-04-25T11:49:18;10.70;48.60
40622;DHT22;26324;52.040;11.528;2023-04-25T11:51:47;10.80;45.30
40622;DHT22;26324;52.040;11.528;2023-04-25T11:54:15;10.60;46.90
40622;DHT22;26324;52.040;11.528;2023-04-25T11:56:44;10.60;46.80
40622;DHT22;26324;52.040;11.528;2023-04-25T11:59:12;10.70;49.30
40622;DHT22;26324;52.040;11.528;2023-04-25T12:01:41;10.80;50.50
40622;DHT22;26324;52.040;11.528;2023-04-25T12:04:24;10.80;51.10
40622;DHT22;26324;52.040;11.528;2023-04-25T12:06:53;10.60;51.60
40622;DHT22;26324;52.040;11.528;2023-04-25T12:09:32;10.70;55.00
40622;DHT22;26324;52.040;11.528;2023-04-25T12:12:01;11.40;53.80
40622;DHT22;26324;52.040;11.528;2023-04-25T12:14:34;11.80;47.00
40622;DHT22;26324;52.040;11.528;2023-04-25T12:17:03;11.60;45.90
40622;DHT22;26324;52.040;11.528;2023-04-25T12:19:36;11.60;44.40
40622;DHT22;26324;52.040;11.528;2023-04-25T12:22:22;11.50;45.60
40622;DHT22;26324;52.040;11.528;2023-04-25T12:24:50;11.10;46.00
40622;DHT22;26324;52.040;11.528;2023-04-25T12:27:17;11.00;46.60
40622;DHT22;26324;52.040;11.528;2023-04-25T12:29:54;10.70;45.90
40622;DHT22;26324;52.040;11.528;2023-04-25T12:32:22;10.70;47.90
40622;DHT22;26324;52.040;11.528;2023-04-25T12:34:49;10.90;53.10
40622;DHT22;26324;52.040;11.528;2023-04-25T12:37:17;11.00;50.80
40622;DHT22;26324;52.040;11.528;2023-04-25T12:39:44;11.00;49.90
40622;DHT22;26324;52.040;11.528;2023-04-25T12:42:11;10.90;50.00
40622;DHT22;26324;52.040;11.528;2023-04-25T12:44:40;10.70;49.30
40622;DHT22;26324;52.040;11.528;2023-04-25T12:47:08;10.50;47.50
40622;DHT22;26324;52.040;11.528;2023-04-25T12:49:36;10.70;49.80
40622;DHT22;26324;52.040;11.528;2023-04-25T12:52:03;10.90;50.30
40622;DHT22;26324;52.040;11.528;2023-04-25T12:54:30;11.40;49.00
40622;DHT22;26324;52.040;11.528;2023-04-25T12:56:58;12.00;48.70
40622;DHT22;26324;52.040;11.528;2023-04-25T12:59:26;12.20;44.90
40622;DHT22;26324;52.040;11.528;2023-04-25T13:01:54;11.90;44.70
40622;DHT22;26324;52.040;11.528;2023-04-25T13:04:21;11.80;45.60
40622;DHT22;26324;52.040;11.528;2023-04-25T13:06:49;11.20;45.70
40622;DHT22;26324;52.040;11.528;2023-04-25T13:09:16;11.10;48.30
40622;DHT22;26324;52.040;11.528;2023-04-25T13:11:43;10.90;50.60
40622;DHT22;26324;52.040;11.528;2023-04-25T13:14:11;10.70;49.80
40622;DHT22;26324;52.040;11.528;2023-04-25T13:16:38;10.60;50.90
40622;DHT22;26324;52.040;11.528;2023-04-25T13:19:05;10.50;51.50
40622;DHT22;26324;52.040;11.528;2023-04-25T13:21:34;10.30;51.20
40622;DHT22;26324;52.040;11.528;2023-04-25T13:24:02;10.30;51.50
40622;DHT22;26324;52.040;11.528;2023-04-25T13:26:29;10.40;52.30
40622;DHT22;26324;52.040;11.528;2023-04-25T13:28:57;10.60;51.50
40622;DHT22;26324;52.040;11.528;2023-04-25T13:31:24;10.80;49.30
40622;DHT22;26324;52.040;11.528;2023-04-25T13:33:52;11.00;50.00
40622;DHT22;26324;52.040;11.528;2023-04-25T13:36:20;11.50;53.20
40622;DHT22;26324;52.040;11.528;2023-04-25T13:38:47;12.50;46.20
40622;DHT22;26324;52.040;11.528;2023-04-25T13:41:16;13.10;42.30
40622;DHT22;26324;52.040;11.528;2023-04-25T13:43:46;13.50;42.80
40622;DHT22;26324;52.040;11.528;2023-04-25T13:46:14;14.50;41.00
40622;DHT22;26324;52.040;11.528;2023-04-25T13:49:02;15.50;37.60
40622;DHT22;26324;52.040;11.528;2023-04-25T13:51:39;16.00;38.80
40622;DHT22;26324;52.040;11.528;2023-04-25T13:54:07;16.10;35.60
40622;DHT22;26324;52.040;11.528;2023-04-25T13:56:34;15.90;36.30
40622;DHT22;26324;52.040;11.528;2023-04-25T13:59:02;15.40;36.90
40622;DHT22;26324;52.040;11.528;2023-04-25T14:01:29;14.60;37.70
40622;DHT22;26324;52.040;11.528;2023-04-25T14:04:04;13.60;39.50
40622;DHT22;26324;52.040;11.528;2023-04-25T14:06:32;12.50;43.10
40622;DHT22;26324;52.040;11.528;2023-04-25T14:09:00;12.00;44.30
40622;DHT22;26324;52.040;11.528;2023-04-25T14:11:31;11.70;44.90
40622;DHT22;26324;52.040;11.528;2023-04-25T14:13:58;11.60;45.00
40622;DHT22;26324;52.040;11.528;2023-04-25T14:16:26;11.30;46.50
40622;DHT22;26324;52.040;11.528;2023-04-25T14:18:53;11.40;44.50
40622;DHT22;26324;52.040;11.528;2023-04-25T14:21:21;11.50;44.40
40622;DHT22;26324;52.040;11.528;2023-04-25T14:23:48;11.50;47.60
40622;DHT22;26324;52.040;11.528;2023-04-25T14:26:16;11.70;46.00
40622;DHT22;26324;52.040;11.528;2023-04-25T14:28:43;11.50;44.70
40622;DHT22;26324;52.040;11.528;2023-04-25T14:31:11;11.60;44.40
40622;DHT22;26324;52.040;11.528;2023-04-25T14:33:38;12.10;46.20
40622;DHT22;26324;52.040;11.528;2023-04-25T14:36:09;13.50;42.20
40622;DHT22;26324;52.040;11.528;2023-04-25T14:38:37;14.10;41.00
40622;DHT22;26324;52.040;11.528;2023-04-25T14:41:04;14.90;40.90
40622;DHT22;26324;52.040;11.528;2023-04-25T14:43:31;15.80;38.90
40622;DHT22;26324;52.040;11.528;2023-04-25T14:45:59;15.30;38.60
40622;DHT22;26324;52.040;11.528;2023-04-25T14:48:26;14.30;41.60
40622;DHT22;26324;52.040;11.528;2023-04-25T14:50:54;13.20;42.40
40622;DHT22;26324;52.040;11.528;2023-04-25T14:53:23;12.80;41.60
40622;DHT22;26324;52.040;11.528;2023-04-25T14:55:51;12.30;43.50
40622;DHT22;26324;52.040;11.528;2023-04-25T14:58:18;12.20;43.80
40622;DHT22;26324;52.040;11.528;2023-04-25T15:00:46;12.70;43.00
40622;DHT22;26324;52.040;11.528;2023-04-25T15:03:14;12.80;41.80
40622;DHT22;26324;52.040;11.528;2023-04-25T15:05:43;12.40;41.90
40622;DHT22;26324;52.040;11.528;2023-04-25T15:08:11;11.90;42.80
40622;DHT22;26324;52.040;11.528;2023-04-25T15:10:39;11.70;44.80
40622;DHT22;26324;52.040;11.528;2023-04-25T15:13:10;12.70;43.00
40622;DHT22;26324;52.040;11.528;2023-04-25T15:15:40;14.40;41.40
40622;DHT22;26324;52.040;11.528;2023-04-25T15:18:07;15.40;39.20
40622;DHT22;26324;52.040;11.528;2023-04-25T15:20:35;15.60;38.20
40622;DHT22;26324;52.040;11.528;2023-04-25T15:23:02;14.40;40.70
40622;DHT22;26324;52.040;11.528;2023-04-25T15:25:32;13.40;43.50
40622;DHT22;26324;52.040;11.528;2023-04-25T15:27:59;13.10;45.10
40622;DHT22;26324;52.040;11.528;2023-04-25T15:30:27;13.80;42.90
40622;DHT22;26324;52.040;11.528;2023-04-25T15:32:54;14.80;40.00
40622;DHT22;26324;52.040;11.528;2023-04-25T15:35:22;14.50;39.10
40622;DHT22;26324;52.040;11.528;2023-04-25T15:37:50;14.40;38.20
40622;DHT22;26324;52.040;11.528;2023-04-25T15:40:19;14.50;35.30
40622;DHT22;26324;52.040;11.528;2023-04-25T15:42:48;14.50;36.40
40622;DHT22;26324;52.040;11.528;2023-04-25T15:45:20;14.60;34.70
40622;DHT22;26324;52.040;11.528;2023-04-25T15:47:50;14.80;33.50
40622;DHT22;26324;52.040;11.528;2023-04-25T15:50:22;14.60;34.30
40622;DHT22;26324;52.040;11.528;2023-04-25T15:52:50;14.90;33.80
40622;DHT22;26324;52.040;11.528;2023-04-25T15:55:19;15.10;33.70
40622;DHT22;26324;52.040;11.528;2023-04-25T15:57:49;14.70;35.30
40622;DHT22;26324;52.040;11.528;2023-04-25T16:00:18;14.30;34.80
40622;DHT22;26324;52.040;11.528;2023-04-25T16:02:45;14.10;35.90
40622;DHT22;26324;52.040;11.528;2023-04-25T16:05:14;14.30;36.20
40622;DHT22;26324;52.040;11.528;2023-04-25T16:07:43;14.50;38.30
40622;DHT22;26324;52.040;11.528;2023-04-25T16:10:12;14.50;37.10
40622;DHT22;26324;52.040;11.528;2023-04-25T16:12:40;13.60;39.90
40622;DHT22;26324;52.040;11.528;2023-04-25T16:15:08;12.90;41.40
40622;DHT22;26324;52.040;11.528;2023-04-25T16:17:35;12.30;43.10
40622;DHT22;26324;52.040;11.528;2023-04-25T16:20:02;12.00;46.70
40622;DHT22;26324;52.040;11.528;2023-04-25T16:22:40;12.00;47.50
40622;DHT22;26324;52.040;11.528;2023-04-25T16:25:08;12.00;48.00
40622;DHT22;26324;52.040;11.528;2023-04-25T16:27:36;12.30;48.00
40622;DHT22;26324;52.040;11.528;2023-04-25T16:30:06;12.50;47.10
40622;DHT22;26324;52.040;11.528;2023-04-25T16:32:34;12.50;47.10
40622;DHT22;26324;52.040;11.528;2023-04-25T16:35:02;12.50;48.00
40622;DHT22;26324;52.040;11.528;2023-04-25T16:37:30;12.60;46.20
40622;DHT22;26324;52.040;11.528;2023-04-25T16:39:57;13.00;47.00
40622;DHT22;26324;52.040;11.528;2023-04-25T16:42:24;13.80;42.10
40622;DHT22;26324;52.040;11.528;2023-04-25T16:44:51;13.90;39.40
40622;DHT22;26324;52.040;11.528;2023-04-25T16:47:19;13.40;41.50
40622;DHT22;26324;52.040;11.528;2023-04-25T16:49:47;12.40;43.30
40622;DHT22;26324;52.040;11.528;2023-04-25T16:52:14;11.90;45.80
40622;DHT22;26324;52.040;11.528;2023-04-25T16:54:42;11.60;47.50
40622;DHT22;26324;52.040;11.528;2023-04-25T16:57:09;11.10;47.80
40622;DHT22;26324;52.040;11.528;2023-04-25T16:59:38;10.70;48.00
40622;DHT22;26324;52.040;11.528;2023-04-25T17:02:09;10.50;50.10